Britney Lee — WDC2895 — position and weather

sailwx.info

Track history (hours):
 
Tides and Currents Weather Stations Pressure Air Temp Water Temp Dewpoint Dewpoint Depression Visibility Wind Speed Wind Dir Waves Ship Positions

Britney Lee

Owner: Western Rivers Boat Management, Inc., Paducah, KY. More information available from US FCC via Universal Licensing System and Coast Guard Vessel Documentation Center.

Last reported at 2015-Feb-10 11:33 UTC. Time now 2015-Mar-01 00:40 UTC.
Position N 30°13' W 091°09'.
Warning: this ship's position is 18 days out of date.

Length 44 m.

Type: Tow > 200 m length. MMSI: 367129650.

Date/timePositionNaut miles runAvg speedWind from/ knotsBaromVisibWave heightAir tempDewpointWater temp
2015-Feb-10 11:33N 30°13' W 091°09'58 2.3
2015-Feb-09 10:16N 29°55' W 090°05'3 4.5
2015-Feb-09 09:29N 29°57' W 090°03'6 0.4
2015-Feb-08 19:30N 29°55' W 089°57'6 5.1
2015-Feb-08 18:22N 29°58' W 090°03'13 2.5
2015-Feb-08 13:03N 29°57' W 090°18'32 1.4
2015-Feb-07 13:13N 30°05' W 090°54'4 5.2
2015-Feb-07 12:32N 30°08' W 090°56'2 2.5
2015-Feb-07 11:34N 30°07' W 090°59'0 0.0
2015-Feb-07 10:33N 30°07' W 090°59'3 2.8
2015-Feb-07 09:33N 30°08' W 091°02'5 4.8
2015-Feb-07 08:30N 30°13' W 091°03'5 5.5
2015-Feb-07 07:33N 30°11' W 091°08'  
Track history (hours):
 
Tides and Currents Weather Stations Pressure Air Temp Water Temp Dewpoint Dewpoint Depression Visibility Wind Speed Wind Dir Waves Ship Positions

Britney Lee

Owner: Western Rivers Boat Management, Inc., Paducah, KY. More information available from US FCC via Universal Licensing System and Coast Guard Vessel Documentation Center.

Last reported at 2015-Feb-10 11:33 UTC. Time now 2015-Mar-01 00:40 UTC.
Position N 30°13' W 091°09'.
Warning: this ship's position is 18 days out of date.

Length 44 m.

Type: Tow > 200 m length. MMSI: 367129650.

Date/timePositionNaut miles runAvg speedWind from/ knotsBaromVisibWave heightAir tempDewpointWater temp
2015-Feb-10 11:33N 30°13' W 091°09'58 2.3
2015-Feb-09 10:16N 29°55' W 090°05'3 4.5
2015-Feb-09 09:29N 29°57' W 090°03'6 0.4
2015-Feb-08 19:30N 29°55' W 089°57'6 5.1
2015-Feb-08 18:22N 29°58' W 090°03'13 2.5
2015-Feb-08 13:03N 29°57' W 090°18'32 1.4
2015-Feb-07 13:13N 30°05' W 090°54'4 5.2
2015-Feb-07 12:32N 30°08' W 090°56'2 2.5
2015-Feb-07 11:34N 30°07' W 090°59'0 0.0
2015-Feb-07 10:33N 30°07' W 090°59'3 2.8
2015-Feb-07 09:33N 30°08' W 091°02'5 4.8
2015-Feb-07 08:30N 30°13' W 091°03'5 5.5
2015-Feb-07 07:33N 30°11' W 091°08'  

Dump ship's entire track history